Novokuznetsk, Russia
Current Conditions -  °F | °C
As of 1:00 AM on Sunday 26 Oct 2014 (Local Time) from UNEE Reporting Station
Overcast Overcast  
Wind Chill: 14°   Ceiling: 3200
Heat Index: 27°   Visibility: 6mi
Dew Point: 19°   Wind: 18mph
Humidity: 74%   Direction: 240°WSW
Pressure: 29.94"   Gusts: NA
Location:  53.75°N, 87.1°E
Report Text: UNEE 251800Z 24008MPS 9999 OVC032CB M03/M07 Q1014 NOSIG RMKQFE738 23350050
Loading
Personal Weather Stations






























Interactive Weather Map
Tropical Storm Tracking
New forecast layout! Learn more

10-Day Weather Forecast

Advertisements
Track Severe Weather on mobile